Time;durP1;ratioP1;P1;durP2;ratioP2;P2;SDS_P1;SDS_P2;PMS_P1;PMS_P2;Temp;Humidity;BMP_temperature;BMP_pressure;BME280_temperature;BME280_humidity;BME280_pressure;Samples;Min_cycle;Max_cycle;Signal;HPM_P1;HPM_P2
2022/05/04 00:02:23;;;;;;;4.43;3.63;;;18.00;72.90;;;;;;10160120;28;20100;-65
2022/05/04 00:07:14;;;;;;;4.85;3.38;;;17.90;73.20;;;;;;10161677;28;20480;-65
2022/05/04 00:12:05;;;;;;;8.60;4.03;;;17.90;73.60;;;;;;10151791;28;20012;-66
2022/05/04 00:16:56;;;;;;;5.55;3.45;;;17.70;73.90;;;;;;10152336;28;20082;-66
2022/05/04 00:21:46;;;;;;;5.65;3.70;;;17.60;74.50;;;;;;10153473;28;20085;-65
2022/05/04 00:26:37;;;;;;;4.97;4.13;;;17.50;75.10;;;;;;10149144;28;20045;-67
2022/05/04 00:31:28;;;;;;;4.15;3.03;;;17.30;75.60;;;;;;10161643;28;20033;-64
2022/05/04 00:36:18;;;;;;;5.95;4.43;;;17.20;76.20;;;;;;10172496;28;20047;-65
2022/05/04 00:41:09;;;;;;;5.20;3.80;;;17.40;76.30;;;;;;10153489;28;20020;-68
2022/05/04 00:46:00;;;;;;;4.10;3.28;;;17.30;76.20;;;;;;10154661;28;20039;-64
2022/05/04 00:50:52;;;;;;;4.55;3.88;;;17.40;76.30;;;;;;10158642;28;20260;-67
2022/05/04 00:55:43;;;;;;;6.75;3.80;;;17.40;76.50;;;;;;10165064;28;20028;-64
2022/05/04 01:00:34;;;;;;;4.75;3.70;;;17.30;76.70;;;;;;10161348;28;20522;-66
2022/05/04 01:05:25;;;;;;;5.50;3.67;;;17.40;77.10;;;;;;10167126;28;20034;-68
2022/05/04 01:10:15;;;;;;;6.05;4.30;;;17.40;77.30;;;;;;10161316;28;20460;-68
2022/05/04 01:15:07;;;;;;;7.82;4.53;;;17.40;77.50;;;;;;10148220;28;20020;-66
2022/05/04 01:19:59;;;;;;;6.60;4.20;;;17.40;77.50;;;;;;10147648;28;20024;-65
2022/05/04 01:24:49;;;;;;;7.35;4.15;;;17.20;78.70;;;;;;10156317;28;20021;-63
2022/05/04 01:29:40;;;;;;;5.47;3.95;;;17.20;78.50;;;;;;10150474;28;20481;-69
2022/05/04 01:34:31;;;;;;;6.53;3.20;;;17.10;78.60;;;;;;10160241;28;20056;-63
2022/05/04 01:39:21;;;;;;;6.13;3.65;;;17.00;79.00;;;;;;10150880;28;20038;-62
2022/05/04 01:44:12;;;;;;;5.25;3.92;;;17.00;79.20;;;;;;10148665;28;20036;-65
2022/05/04 01:49:03;;;;;;;4.70;3.88;;;16.90;79.60;;;;;;10154963;28;20413;-63
2022/05/04 01:53:53;;;;;;;6.70;3.70;;;16.80;79.90;;;;;;10148836;28;20032;-66
2022/05/04 01:58:44;;;;;;;7.25;4.78;;;16.70;80.20;;;;;;10154092;28;20070;-66
2022/05/04 02:03:36;;;;;;;5.60;4.13;;;16.70;80.60;;;;;;10149299;28;20031;-68
2022/05/04 02:08:27;;;;;;;8.40;3.90;;;16.70;80.80;;;;;;10155165;28;20048;-63
2022/05/04 02:13:18;;;;;;;7.60;5.03;;;16.50;81.30;;;;;;10157889;28;20028;-66
2022/05/04 02:18:08;;;;;;;4.13;3.25;;;16.70;81.20;;;;;;10159532;28;20032;-62
2022/05/04 02:22:59;;;;;;;5.43;3.80;;;16.50;81.30;;;;;;10152373;28;20024;-62
2022/05/04 02:27:49;;;;;;;4.57;3.53;;;16.40;81.70;;;;;;10151299;28;20440;-63
2022/05/04 02:32:40;;;;;;;5.45;3.78;;;16.40;81.80;;;;;;10169521;28;20032;-63
2022/05/04 02:42:40;;;;;;;6.20;4.30;;;16.30;82.40;;;;;;10158782;28;20126;-63
2022/05/04 02:47:31;;;;;;;5.15;3.40;;;16.10;82.50;;;;;;10154825;28;20147;-63
2022/05/04 02:52:22;;;;;;;6.00;4.43;;;16.10;82.70;;;;;;10158522;28;20082;-67
2022/05/04 02:57:12;;;;;;;6.90;3.58;;;16.00;83.00;;;;;;10148741;28;20028;-62
2022/05/04 03:07:13;;;;;;;6.57;4.20;;;16.00;83.30;;;;;;10152369;28;20055;-68
2022/05/04 03:12:04;;;;;;;7.40;4.25;;;15.80;83.60;;;;;;10148616;28;20032;-65
2022/05/04 03:16:56;;;;;;;7.47;3.70;;;15.50;84.10;;;;;;10151449;28;20119;-65
2022/05/04 03:21:47;;;;;;;5.10;3.88;;;15.50;84.40;;;;;;10153312;28;20032;-62
2022/05/04 03:26:38;;;;;;;5.68;3.88;;;15.50;84.50;;;;;;10163412;28;20568;-70
2022/05/04 03:31:29;;;;;;;6.32;4.45;;;15.50;84.40;;;;;;10140301;28;20040;-65
2022/05/04 03:36:20;;;;;;;5.57;3.90;;;15.60;84.60;;;;;;10160929;28;20642;-66
2022/05/04 03:41:10;;;;;;;6.97;4.38;;;15.60;84.70;;;;;;10162670;28;20583;-68
2022/05/04 03:46:24;;;;;;;5.55;4.13;;;15.60;84.90;;;;;;10149176;28;20493;-67
2022/05/04 03:51:16;;;;;;;6.82;4.18;;;15.50;85.70;;;;;;10152929;28;20127;-62
2022/05/04 03:56:07;;;;;;;5.60;3.72;;;15.30;85.70;;;;;;10149716;28;20107;-64
2022/05/04 04:00:58;;;;;;;6.22;4.80;;;15.20;86.00;;;;;;10167698;28;20029;-69
2022/05/04 04:05:48;;;;;;;5.95;4.53;;;15.30;86.50;;;;;;10147281;28;20126;-68
2022/05/04 04:10:39;;;;;;;7.32;4.78;;;15.40;86.00;;;;;;10171109;28;20051;-62
2022/05/04 04:15:30;;;;;;;6.05;3.90;;;15.40;86.30;;;;;;10137567;28;20055;-63
2022/05/04 04:25:30;;;;;;;6.13;4.40;;;15.50;86.40;;;;;;10147041;28;20094;-65
2022/05/04 04:30:21;;;;;;;5.45;4.30;;;15.50;86.60;;;;;;10154362;28;20078;-65
2022/05/04 04:35:13;;;;;;;4.82;4.15;;;15.60;86.70;;;;;;10167777;28;20040;-62
2022/05/04 04:40:04;;;;;;;6.13;4.60;;;15.50;87.00;;;;;;10156215;28;20127;-64
2022/05/04 04:44:54;;;;;;;5.80;5.20;;;15.40;87.40;;;;;;10151870;28;20107;-60
2022/05/04 04:49:45;;;;;;;6.30;4.78;;;15.30;87.50;;;;;;10153965;28;20419;-60
2022/05/04 04:54:36;;;;;;;5.95;4.05;;;15.30;87.40;;;;;;10144400;28;20481;-69
2022/05/04 04:59:26;;;;;;;5.68;4.20;;;15.30;87.30;;;;;;10160226;28;20036;-61
2022/05/04 05:04:17;;;;;;;4.72;3.75;;;15.20;87.80;;;;;;10154570;28;20038;-63
2022/05/04 05:09:07;;;;;;;4.35;3.78;;;15.30;87.60;;;;;;10149200;28;20036;-68
2022/05/04 05:19:07;;;;;;;5.50;3.33;;;15.30;87.70;;;;;;10099421;28;20047;-64
2022/05/04 05:23:58;;;;;;;5.80;3.30;;;15.30;87.70;;;;;;10095264;28;20115;-60
2022/05/04 05:28:49;;;;;;;4.53;3.35;;;15.10;87.90;;;;;;10093857;28;20075;-62
2022/05/04 05:33:40;;;;;;;5.47;3.33;;;15.10;87.80;;;;;;10101397;28;20056;-62
2022/05/04 05:38:30;;;;;;;5.65;3.95;;;15.20;88.20;;;;;;10096375;28;20028;-64
2022/05/04 05:43:21;;;;;;;5.78;3.72;;;15.30;87.70;;;;;;10096286;28;20352;-62
2022/05/04 05:48:12;;;;;;;4.88;3.22;;;15.10;87.90;;;;;;10092271;28;20543;-62
2022/05/04 05:53:03;;;;;;;7.15;4.63;;;15.20;88.30;;;;;;10099698;28;20259;-62
2022/05/04 05:57:54;;;;;;;5.53;4.25;;;15.40;87.80;;;;;;10093850;28;20090;-60
2022/05/04 06:02:45;;;;;;;5.28;3.60;;;15.30;87.90;;;;;;10093497;28;20025;-61
2022/05/04 06:07:37;;;;;;;5.55;3.28;;;15.30;87.80;;;;;;10095194;28;20140;-60
2022/05/04 06:12:27;;;;;;;8.63;4.55;;;15.40;88.00;;;;;;10092440;28;20079;-62
2022/05/04 06:17:18;;;;;;;6.85;4.18;;;15.40;88.00;;;;;;10098247;28;20037;-60
2022/05/04 06:22:09;;;;;;;5.05;3.70;;;15.60;87.80;;;;;;10089740;28;20029;-61
2022/05/04 06:26:59;;;;;;;6.65;4.35;;;15.60;87.70;;;;;;10091004;28;20029;-60
2022/05/04 06:37:00;;;;;;;6.28;3.92;;;15.40;88.30;;;;;;10088831;28;20061;-63
2022/05/04 06:41:50;;;;;;;5.32;3.92;;;15.50;88.20;;;;;;10089877;28;20033;-62
2022/05/04 06:46:42;;;;;;;4.78;3.90;;;15.70;88.10;;;;;;10090410;28;20043;-62
2022/05/04 06:51:33;;;;;;;6.45;3.72;;;15.90;87.80;;;;;;10091437;28;20086;-62
2022/05/04 06:56:24;;;;;;;5.35;3.85;;;16.10;87.80;;;;;;10106405;28;20028;-65
2022/05/04 07:01:14;;;;;;;3.95;3.45;;;16.40;87.50;;;;;;10089962;28;20036;-65
2022/05/04 07:06:06;;;;;;;5.10;3.40;;;16.60;86.90;;;;;;10090733;28;20702;-60
2022/05/04 07:10:56;;;;;;;5.93;4.03;;;16.70;86.70;;;;;;10090228;28;20116;-59
2022/05/04 07:15:47;;;;;;;11.40;4.00;;;16.90;86.50;;;;;;10090615;28;20131;-60
2022/05/04 07:20:38;;;;;;;6.03;3.67;;;17.00;85.90;;;;;;10098636;28;20029;-62
2022/05/04 07:25:28;;;;;;;7.85;3.67;;;17.00;85.80;;;;;;10097922;28;20056;-61
2022/05/04 07:30:19;;;;;;;5.45;4.40;;;17.10;85.50;;;;;;10101646;28;20045;-59
2022/05/04 07:35:10;;;;;;;5.75;3.75;;;17.00;85.50;;;;;;10088786;28;20150;-59
2022/05/04 07:45:15;;;;;;;6.28;3.63;;;17.00;85.30;;;;;;10085254;28;20584;-60
2022/05/04 07:50:08;;;;;;;7.25;4.07;;;17.20;84.90;;;;;;10089191;28;20036;-62
2022/05/04 07:55:00;;;;;;;5.95;4.22;;;17.30;84.50;;;;;;10086507;28;20403;-61
2022/05/04 08:05:00;;;;;;;5.82;4.07;;;17.30;84.70;;;;;;10091206;28;20383;-61
2022/05/04 08:09:51;;;;;;;9.30;5.70;;;17.40;84.30;;;;;;10095973;28;20035;-62
2022/05/04 08:14:42;;;;;;;8.43;4.63;;;17.60;84.20;;;;;;10095374;28;20045;-63
2022/05/04 08:19:32;;;;;;;9.07;4.53;;;17.70;83.90;;;;;;10095219;28;20977;-61
2022/05/04 08:24:24;;;;;;;8.10;4.32;;;17.80;83.80;;;;;;10095137;28;20017;-60
2022/05/04 08:29:15;;;;;;;7.05;5.07;;;17.90;84.20;;;;;;10094173;28;20043;-62
2022/05/04 08:34:06;;;;;;;8.95;4.20;;;18.10;83.50;;;;;;10110654;28;20120;-62
2022/05/04 08:38:57;;;;;;;6.20;4.15;;;18.20;83.30;;;;;;10101810;28;20169;-62
2022/05/04 08:43:50;;;;;;;4.93;3.95;;;18.60;82.80;;;;;;10103200;28;20173;-62
2022/05/04 08:48:43;;;;;;;6.78;4.80;;;18.70;82.60;;;;;;10102296;28;20045;-63
2022/05/04 08:53:35;;;;;;;6.22;3.85;;;19.00;82.20;;;;;;10082166;28;20410;-63
2022/05/04 08:58:25;;;;;;;7.70;4.75;;;19.10;82.00;;;;;;10086207;28;20033;-63
2022/05/04 09:03:18;;;;;;;8.40;4.57;;;19.20;81.90;;;;;;10091065;28;20032;-65
2022/05/04 09:08:09;;;;;;;6.03;3.85;;;19.20;81.70;;;;;;10093578;28;20223;-64
2022/05/04 09:13:00;;;;;;;7.15;4.82;;;19.20;81.30;;;;;;10087382;28;20430;-64
2022/05/04 09:18:01;;;;;;;10.10;4.47;;;19.20;81.40;;;;;;10090286;28;20656;-62
2022/05/04 09:22:52;;;;;;;7.93;4.55;;;18.90;81.40;;;;;;10101600;28;20032;-62
2022/05/04 09:27:43;;;;;;;5.70;4.47;;;19.10;81.00;;;;;;10092861;28;20261;-62
2022/05/04 09:32:39;;;;;;;5.10;4.10;;;19.10;80.70;;;;;;10084892;28;20032;-62
2022/05/04 09:48:02;;;;;;;5.82;4.25;;;19.40;79.70;;;;;;10094817;28;20083;-67
2022/05/04 09:52:56;;;;;;;7.75;5.30;;;19.50;79.30;;;;;;10093642;28;20170;-65
2022/05/04 09:57:48;;;;;;;5.63;4.23;;;19.60;79.40;;;;;;10097772;28;20037;-64
2022/05/04 10:02:44;;;;;;;6.78;4.20;;;19.60;79.30;;;;;;10091947;28;20539;-63
2022/05/04 10:07:36;;;;;;;8.57;4.07;;;19.80;78.90;;;;;;10090145;28;20136;-65
2022/05/04 10:12:29;;;;;;;5.55;4.00;;;19.80;78.40;;;;;;10094683;28;20080;-67
2022/05/04 10:17:25;;;;;;;7.70;4.82;;;19.80;78.30;;;;;;10085709;28;20402;-66
2022/05/04 10:22:36;;;;;;;6.13;4.20;;;19.80;78.20;;;;;;10092676;28;20032;-61
2022/05/04 10:27:28;;;;;;;6.57;4.43;;;20.00;77.60;;;;;;10091644;28;20041;-61
2022/05/04 10:32:42;;;;;;;6.15;4.03;;;19.90;77.70;;;;;;10093837;28;20444;-62
2022/05/04 10:37:32;;;;;;;7.03;4.88;;;20.00;76.80;;;;;;10095331;28;20023;-62
2022/05/04 10:42:55;;;;;;;7.78;4.72;;;20.20;77.10;;;;;;10092855;28;20021;-63
2022/05/04 10:47:46;;;;;;;8.55;4.13;;;20.40;75.10;;;;;;10094007;28;20037;-65
2022/05/04 10:52:47;;;;;;;7.78;4.07;;;20.40;76.20;;;;;;10082023;28;20120;-61
2022/05/04 10:57:42;;;;;;;5.40;4.03;;;20.50;75.60;;;;;;10088909;28;20029;-62
2022/05/04 11:02:32;;;;;;;;;;;20.60;75.60;;;;;;10089978;28;20040;-63
2022/05/04 11:07:31;;;;;;;6.60;4.53;;;20.70;73.30;;;;;;10078768;28;19964;-63
2022/05/04 11:12:23;;;;;;;6.50;4.15;;;20.80;74.90;;;;;;10083308;28;20134;-62
2022/05/04 11:17:16;;;;;;;7.82;5.53;;;20.90;74.50;;;;;;10090814;28;20570;-62
2022/05/04 11:22:08;;;;;;;4.53;3.92;;;21.30;74.10;;;;;;10094212;28;20040;-65
2022/05/04 11:26:59;;;;;;;6.65;4.22;;;21.60;73.40;;;;;;10087434;28;20047;-63
2022/05/04 11:31:54;;;;;;;6.55;4.03;;;21.80;72.90;;;;;;10088791;28;20096;-64
2022/05/04 11:36:47;;;;;;;7.20;3.95;;;22.00;72.70;;;;;;10090307;28;20025;-62
2022/05/04 11:41:38;;;;;;;5.40;3.90;;;22.20;72.20;;;;;;10099743;28;20120;-62
2022/05/04 11:46:30;;;;;;;6.45;3.50;;;22.20;72.00;;;;;;10093192;28;20120;-67
2022/05/04 11:51:20;;;;;;;6.60;4.10;;;22.40;71.70;;;;;;10093061;28;20048;-65
2022/05/04 11:56:11;;;;;;;5.20;3.85;;;22.70;71.10;;;;;;10097264;28;20028;-65
2022/05/04 12:01:05;;;;;;;5.55;3.78;;;22.80;70.90;;;;;;10092182;28;20111;-62
2022/05/04 12:05:56;;;;;;;7.30;3.83;;;23.00;70.40;;;;;;10096473;28;20411;-62
2022/05/04 12:10:50;;;;;;;4.65;3.97;;;23.10;69.90;;;;;;10104228;28;20110;-62
2022/05/04 12:15:42;;;;;;;7.75;4.45;;;23.00;69.90;;;;;;10100670;28;20284;-63
2022/05/04 12:20:34;;;;;;;7.88;4.28;;;23.10;69.60;;;;;;10100687;28;20115;-63
2022/05/04 12:25:25;;;;;;;5.07;4.30;;;22.80;69.50;;;;;;10099689;28;20075;-65
2022/05/04 12:35:25;;;;;;;4.93;3.58;;;22.40;69.20;;;;;;10098498;28;20036;-64
2022/05/04 12:40:16;;;;;;;6.57;3.42;;;22.20;69.30;;;;;;10101401;28;20055;-65
2022/05/04 12:45:07;;;;;;;7.25;5.05;;;22.30;69.10;;;;;;10100823;28;20028;-62
2022/05/04 12:49:58;;;;;;;5.13;3.47;;;22.40;68.70;;;;;;10094902;28;20068;-65
2022/05/04 12:54:49;;;;;;;6.03;4.65;;;23.00;67.80;;;;;;10099897;28;20162;-63
2022/05/04 12:59:40;;;;;;;3.90;2.88;;;24.00;67.60;;;;;;10103634;28;20041;-61
2022/05/04 13:04:31;;;;;;;5.38;3.22;;;25.70;65.90;;;;;;10094020;28;20021;-67
2022/05/04 13:09:21;;;;;;;4.35;3.28;;;25.20;65.80;;;;;;10095451;28;20130;-60
2022/05/04 13:14:12;;;;;;;3.78;3.42;;;24.60;65.60;;;;;;10099864;28;20045;-63
2022/05/04 13:19:04;;;;;;;8.02;4.03;;;23.60;66.20;;;;;;10102984;28;20114;-65
2022/05/04 13:23:55;;;;;;;8.30;3.83;;;22.90;66.30;;;;;;10091093;28;20013;-60
2022/05/04 13:28:46;;;;;;;4.40;3.47;;;22.70;65.80;;;;;;10102889;28;20041;-63
2022/05/04 13:33:36;;;;;;;6.30;3.85;;;22.50;65.50;;;;;;10093507;28;20108;-63
2022/05/04 13:38:27;;;;;;;3.10;2.30;;;24.20;64.10;;;;;;10096541;28;20037;-62
2022/05/04 13:43:19;;;;;;;3.75;2.67;;;24.00;62.80;;;;;;10093811;28;20411;-62
2022/05/04 13:48:10;;;;;;;2.08;1.80;;;23.60;63.00;;;;;;10091673;28;20516;-64
2022/05/04 13:53:16;;;;;;;2.28;2.08;;;27.90;59.10;;;;;;10093427;28;20052;-61
2022/05/04 13:58:07;;;;;;;2.67;2.00;;;30.60;55.70;;;;;;10091561;28;20037;-63
2022/05/04 14:02:57;;;;;;;2.92;2.20;;;31.70;53.30;;;;;;10108812;28;20025;-65
2022/05/04 14:07:48;;;;;;;2.50;1.83;;;32.00;52.00;;;;;;10095091;28;20278;-65
2022/05/04 14:12:39;;;;;;;1.75;1.60;;;29.60;51.80;;;;;;10092302;28;20076;-68
2022/05/04 14:17:30;;;;;;;2.55;1.52;;;26.80;53.40;;;;;;10088366;28;20107;-63
2022/05/04 14:22:21;;;;;;;1.83;1.60;;;24.00;55.10;;;;;;10097082;28;20491;-61
2022/05/04 14:27:11;;;;;;;1.48;1.38;;;22.60;55.60;;;;;;10091289;28;20031;-63
2022/05/04 14:32:03;;;;;;;2.97;1.60;;;21.90;55.50;;;;;;10090005;28;20377;-63
2022/05/04 14:36:54;;;;;;;3.72;2.38;;;21.50;55.10;;;;;;10091476;28;20032;-61
2022/05/04 14:41:45;;;;;;;3.55;2.97;;;21.10;56.10;;;;;;10093399;28;20016;-62
2022/05/04 14:46:35;;;;;;;3.67;2.58;;;20.80;56.80;;;;;;10093258;28;20502;-65
2022/05/04 14:51:26;;;;;;;4.80;2.95;;;20.70;58.00;;;;;;10091682;28;20029;-65
2022/05/04 14:56:18;;;;;;;4.18;2.92;;;20.50;59.40;;;;;;10091555;28;20032;-63
2022/05/04 15:01:09;;;;;;;3.75;2.95;;;20.40;60.30;;;;;;10084356;28;20029;-59
2022/05/04 15:05:59;;;;;;;3.28;2.40;;;20.40;61.00;;;;;;10090440;28;20045;-63
2022/05/04 15:10:50;;;;;;;4.70;1.88;;;20.30;61.80;;;;;;10088729;28;20118;-62
2022/05/04 15:15:41;;;;;;;1.90;1.63;;;20.30;62.10;;;;;;10095355;28;20048;-62
2022/05/04 15:20:31;;;;;;;1.75;1.52;;;20.40;61.90;;;;;;10100880;28;20033;-61
2022/05/04 15:25:22;;;;;;;3.65;2.30;;;20.60;61.80;;;;;;10095034;28;20287;-61
2022/05/04 15:30:13;;;;;;;2.50;1.85;;;20.70;61.50;;;;;;10100806;28;20055;-64
2022/05/04 15:35:04;;;;;;;2.63;2.15;;;20.90;61.10;;;;;;10095416;28;20146;-65
2022/05/04 15:39:55;;;;;;;2.00;1.80;;;21.10;61.10;;;;;;10086901;28;20399;-61
2022/05/04 15:44:45;;;;;;;3.70;2.17;;;21.40;60.70;;;;;;10095284;28;20033;-65
2022/05/04 15:49:36;;;;;;;2.38;2.15;;;21.40;60.40;;;;;;10097062;28;20041;-64
2022/05/04 15:54:27;;;;;;;2.13;1.73;;;21.50;60.20;;;;;;10097811;28;20036;-64
2022/05/04 15:59:18;;;;;;;2.40;1.77;;;21.70;59.80;;;;;;10094151;28;20029;-63
2022/05/04 16:04:12;;;;;;;2.95;1.80;;;22.00;59.50;;;;;;10099905;28;20487;-64
2022/05/04 16:09:05;;;;;;;3.30;2.28;;;21.90;59.60;;;;;;10098007;28;20116;-64
2022/05/04 16:13:56;;;;;;;3.67;1.80;;;22.00;59.60;;;;;;10097897;28;20268;-66
2022/05/04 16:23:55;;;;;;;5.10;3.92;;;21.80;59.50;;;;;;10101410;28;20028;-65
2022/05/04 16:28:46;;;;;;;4.22;2.60;;;21.80;59.50;;;;;;10096051;28;20044;-68
2022/05/04 16:33:38;;;;;;;5.38;2.13;;;21.50;60.00;;;;;;10098353;28;20328;-65
2022/05/04 16:38:30;;;;;;;2.47;1.80;;;21.30;59.80;;;;;;10096315;28;20075;-67
2022/05/04 16:43:21;;;;;;;1.50;1.40;;;21.10;60.00;;;;;;10097300;28;20025;-61
2022/05/04 16:48:12;;;;;;;4.07;2.13;;;21.20;59.90;;;;;;10096168;28;20506;-62
2022/05/04 16:53:02;;;;;;;4.63;2.30;;;21.00;59.90;;;;;;10096565;28;20020;-63
2022/05/04 16:57:53;;;;;;;3.28;2.15;;;21.10;59.70;;;;;;10097438;28;20106;-64
2022/05/04 17:02:44;;;;;;;5.18;2.80;;;21.10;59.90;;;;;;10095773;28;20453;-64
2022/05/04 17:07:34;;;;;;;4.35;2.38;;;20.90;60.20;;;;;;10095403;28;20054;-64
2022/05/04 17:12:26;;;;;;;12.00;7.63;;;20.80;60.50;;;;;;10095189;28;20052;-68
2022/05/04 17:17:16;;;;;;;47.42;23.95;;;23.90;56.50;;;;;;10090885;28;20032;-59
2022/05/04 17:22:07;;;;;;;25.55;13.82;;;26.80;53.20;;;;;;10092593;28;20082;-61
2022/05/04 17:26:58;;;;;;;8.98;5.07;;;28.00;51.90;;;;;;10090641;28;20075;-60
2022/05/04 17:36:42;;;;;;;7.70;5.75;;;24.80;55.00;;;;;;10092684;28;20193;-61
2022/05/04 17:36:59;;;;;;;7.57;4.53;;;22.90;57.90;;;;;;10090089;28;20064;-61
2022/05/04 17:41:50;;;;;;;6.85;4.25;;;21.70;59.00;;;;;;10089519;28;20052;-63
2022/05/04 17:46:40;;;;;;;7.80;4.15;;;21.10;59.20;;;;;;10088902;28;20033;-62
2022/05/04 17:51:32;;;;;;;4.15;3.00;;;20.70;59.20;;;;;;10099012;28;20048;-63
2022/05/04 17:56:23;;;;;;;4.50;3.00;;;20.40;59.10;;;;;;10088080;28;20362;-62
2022/05/04 18:01:15;;;;;;;7.93;3.95;;;20.10;59.20;;;;;;10091016;28;20021;-65
2022/05/04 18:06:07;;;;;;;4.97;3.20;;;20.10;59.40;;;;;;10086956;28;20324;-62
2022/05/04 18:10:58;;;;;;;5.78;3.50;;;20.10;60.10;;;;;;10092188;28;20028;-63
2022/05/04 18:15:50;;;;;;;5.70;2.92;;;19.80;60.00;;;;;;10089393;28;20061;-62
2022/05/04 18:20:40;;;;;;;3.38;2.65;;;19.60;60.50;;;;;;10088742;28;20024;-62
2022/05/04 18:25:32;;;;;;;3.83;2.85;;;19.30;61.00;;;;;;10090675;28;20028;-64
2022/05/04 18:30:23;;;;;;;6.70;3.38;;;19.20;61.60;;;;;;10089461;28;20033;-66
2022/05/04 18:35:16;;;;;;;4.63;2.95;;;19.50;61.80;;;;;;10090835;28;20529;-63
2022/05/04 18:40:07;;;;;;;6.13;2.90;;;19.30;62.10;;;;;;10093155;28;20028;-65
2022/05/04 18:44:58;;;;;;;4.53;2.95;;;19.30;62.70;;;;;;10102541;28;20031;-65
2022/05/04 18:49:49;;;;;;;6.75;3.38;;;19.10;63.30;;;;;;10095080;28;20412;-63
2022/05/04 18:54:41;;;;;;;6.18;3.80;;;19.10;63.50;;;;;;10092175;28;20028;-63
2022/05/04 18:59:32;;;;;;;6.68;2.92;;;19.10;63.70;;;;;;10084439;28;20124;-63
2022/05/04 19:04:22;;;;;;;8.75;4.60;;;19.00;63.70;;;;;;10090038;28;20219;-63
2022/05/04 19:09:13;;;;;;;3.55;2.60;;;18.80;64.50;;;;;;10090721;28;20040;-64
2022/05/04 19:14:04;;;;;;;4.60;2.88;;;18.90;64.50;;;;;;10090295;28;20632;-61
2022/05/04 19:18:55;;;;;;;4.93;3.20;;;18.90;64.70;;;;;;10090484;28;20292;-68
2022/05/04 19:23:45;;;;;;;4.50;2.78;;;18.70;65.20;;;;;;10091031;28;20208;-66
2022/05/04 19:28:36;;;;;;;4.88;2.85;;;18.60;65.60;;;;;;10088862;28;20432;-66
2022/05/04 19:33:27;;;;;;;2.85;2.22;;;18.70;65.80;;;;;;10092235;28;20036;-68
2022/05/04 19:38:17;;;;;;;3.45;2.47;;;18.80;66.60;;;;;;10074338;28;20647;-66
2022/05/04 19:43:08;;;;;;;5.18;3.03;;;18.80;66.30;;;;;;10083678;28;20663;-70
2022/05/04 19:47:59;;;;;;;4.22;2.88;;;18.80;66.60;;;;;;10091051;28;20503;-68
2022/05/04 19:52:50;;;;;;;3.67;2.70;;;18.70;66.70;;;;;;10098120;28;20025;-65
2022/05/04 19:57:40;;;;;;;4.78;3.17;;;18.60;67.10;;;;;;10099774;28;20116;-65
2022/05/04 20:02:31;;;;;;;5.55;3.20;;;18.30;67.60;;;;;;10081729;28;20079;-68
2022/05/04 20:07:22;;;;;;;3.63;3.08;;;18.10;68.20;;;;;;10088520;28;20087;-65
2022/05/04 20:12:12;;;;;;;7.05;4.43;;;17.80;69.90;;;;;;10077019;28;20042;-66
2022/05/04 20:17:04;;;;;;;6.40;4.68;;;17.80;69.90;;;;;;10104762;28;20035;-66
2022/05/04 20:21:55;;;;;;;5.28;3.85;;;17.60;70.40;;;;;;10106345;28;20059;-66
2022/05/04 20:26:45;;;;;;;7.03;3.78;;;17.50;71.50;;;;;;10093975;28;20331;-67
2022/05/04 20:31:36;;;;;;;6.80;4.45;;;17.60;72.10;;;;;;10076366;28;20451;-65
2022/05/04 20:36:27;;;;;;;4.22;3.83;;;17.50;72.30;;;;;;10087993;28;20376;-66
2022/05/04 20:41:18;;;;;;;4.28;3.35;;;17.50;73.00;;;;;;10094354;28;20028;-64
2022/05/04 20:46:09;;;;;;;5.97;3.80;;;17.40;73.80;;;;;;10093741;28;20189;-64
2022/05/04 20:56:09;;;;;;;3.53;3.13;;;17.30;74.90;;;;;;10099765;28;20134;-62
2022/05/04 21:01:00;;;;;;;6.20;3.25;;;17.40;75.60;;;;;;10093184;28;20123;-62
2022/05/04 21:05:50;;;;;;;5.10;3.53;;;17.40;76.50;;;;;;10092022;28;20028;-62
2022/05/04 21:10:41;;;;;;;5.35;3.60;;;17.40;77.40;;;;;;10077250;28;20522;-64
2022/05/04 21:15:32;;;;;;;4.55;3.25;;;17.50;76.90;;;;;;10063672;28;20048;-65
2022/05/04 21:20:22;;;;;;;5.70;3.67;;;17.30;77.90;;;;;;10078622;28;20099;-63
2022/05/04 21:25:15;;;;;;;5.72;3.45;;;17.30;78.30;;;;;;10091166;28;20025;-63
2022/05/04 21:30:06;;;;;;;6.40;4.00;;;17.40;78.20;;;;;;10091821;28;20045;-63
2022/05/04 21:34:58;;;;;;;3.83;3.35;;;17.60;78.10;;;;;;10091443;28;20572;-63
2022/05/04 21:39:48;;;;;;;4.13;3.13;;;17.60;78.50;;;;;;10091449;28;20048;-64
2022/05/04 21:44:39;;;;;;;8.82;5.07;;;17.40;79.30;;;;;;10092097;28;20589;-63
2022/05/04 21:49:29;;;;;;;5.38;4.00;;;17.30;79.90;;;;;;10092693;28;20048;-63
2022/05/04 21:54:20;;;;;;;5.57;4.03;;;17.20;80.50;;;;;;10093105;28;20507;-63
2022/05/04 21:59:12;;;;;;;6.00;4.38;;;17.30;80.60;;;;;;10092921;28;20032;-62
2022/05/04 22:04:04;;;;;;;4.78;3.72;;;17.10;80.40;;;;;;10107262;28;20513;-62
2022/05/04 22:08:55;;;;;;;5.05;3.58;;;17.10;80.70;;;;;;10091127;28;20123;-63
2022/05/04 22:13:55;;;;;;;6.53;4.00;;;17.00;81.10;;;;;;10100634;28;20486;-63
2022/05/04 22:18:46;;;;;;;8.40;5.70;;;17.10;81.20;;;;;;10097550;28;20041;-61
2022/05/04 22:23:36;;;;;;;6.82;4.03;;;17.00;81.50;;;;;;10094780;28;20025;-63
2022/05/04 22:28:27;;;;;;;5.03;3.40;;;16.90;82.10;;;;;;10094796;28;20048;-61
2022/05/04 22:33:18;;;;;;;4.55;3.90;;;17.00;82.40;;;;;;10090546;28;20106;-62
2022/05/04 22:38:08;;;;;;;6.40;3.40;;;17.00;82.20;;;;;;10090947;28;20527;-61
2022/05/04 22:42:59;;;;;;;6.07;3.50;;;17.00;82.40;;;;;;10093838;28;20100;-62
2022/05/04 22:47:51;;;;;;;6.72;4.22;;;16.90;82.70;;;;;;10090825;28;20578;-63
2022/05/04 22:52:45;;;;;;;6.80;4.03;;;16.90;82.80;;;;;;10097760;28;20120;-62
2022/05/04 22:57:36;;;;;;;5.40;3.90;;;16.90;83.10;;;;;;10100671;28;20451;-62
2022/05/04 23:02:27;;;;;;;10.68;4.85;;;17.00;83.10;;;;;;10098063;28;20041;-66
2022/05/04 23:07:18;;;;;;;5.05;3.55;;;16.90;83.10;;;;;;10097488;28;20036;-62
2022/05/04 23:12:09;;;;;;;5.63;4.20;;;16.90;83.40;;;;;;10110395;28;20047;-62
2022/05/04 23:17:00;;;;;;;6.38;3.30;;;16.60;83.90;;;;;;10093572;28;20499;-60
2022/05/04 23:21:50;;;;;;;6.72;4.68;;;16.70;83.90;;;;;;10092858;28;20079;-63
2022/05/04 23:26:41;;;;;;;6.68;4.43;;;16.80;83.90;;;;;;10094818;28;20013;-62
2022/05/04 23:31:32;;;;;;;4.93;3.88;;;16.80;84.10;;;;;;10090907;28;20057;-60
2022/05/04 23:41:32;;;;;;;3.38;3.05;;;16.80;84.60;;;;;;10099379;28;20048;-63
2022/05/04 23:46:23;;;;;;;6.13;3.92;;;16.80;84.70;;;;;;10099741;28;20032;-61
2022/05/04 23:51:13;;;;;;;5.05;3.88;;;16.80;84.80;;;;;;10106386;28;20040;-62
2022/05/04 23:56:04;;;;;;;5.57;4.30;;;16.80;84.60;;;;;;10098443;28;20447;-62
